createdAt,value
2018-12-31T00:04:10.200Z,7.53
2018-12-31T00:06:51.543Z,6.97
2018-12-31T00:09:33.210Z,7.57
2018-12-31T00:12:14.035Z,11.13
2018-12-31T00:14:55.179Z,10.73
2018-12-31T00:17:36.876Z,12.03
2018-12-31T00:20:18.092Z,9.90
2018-12-31T00:22:58.691Z,10.87
2018-12-31T00:25:40.099Z,10.10
2018-12-31T00:28:09.584Z,10.83
2018-12-31T00:30:57.912Z,9.77
2018-12-31T00:33:50.591Z,9.67
2018-12-31T00:36:31.836Z,9.43
2018-12-31T00:39:12.972Z,8.80
2018-12-31T00:41:54.365Z,7.00
2018-12-31T00:44:35.228Z,8.20
2018-12-31T00:47:16.078Z,12.37
2018-12-31T00:49:58.289Z,7.87
2018-12-31T00:52:39.433Z,9.43
2018-12-31T00:55:21.183Z,8.20
2018-12-31T00:58:02.321Z,8.40
2018-12-31T01:00:43.688Z,7.10
2018-12-31T01:03:24.945Z,7.03
2018-12-31T01:06:05.499Z,5.67
2018-12-31T01:08:46.170Z,6.27
2018-12-31T01:11:27.586Z,7.27
2018-12-31T01:14:08.723Z,12.50
2018-12-31T01:16:50.075Z,14.23
2018-12-31T01:19:30.913Z,8.40
2018-12-31T01:22:11.931Z,11.00
2018-12-31T01:24:52.393Z,6.37
2018-12-31T01:27:33.272Z,5.63
2018-12-31T01:30:14.518Z,8.93
2018-12-31T01:32:55.833Z,7.50
2018-12-31T01:35:35.649Z,7.57
2018-12-31T01:38:24.538Z,9.93
2018-12-31T01:41:05.613Z,8.77
2018-12-31T01:43:47.110Z,9.50
2018-12-31T01:46:28.383Z,10.00
2018-12-31T01:49:07.743Z,9.87
2018-12-31T01:51:56.652Z,11.23
2018-12-31T01:54:38.186Z,14.80
2018-12-31T01:57:19.195Z,16.27
2018-12-31T02:00:00.576Z,15.00
2018-12-31T02:02:41.203Z,13.43
2018-12-31T02:05:21.925Z,12.83
2018-12-31T02:08:01.916Z,13.73
2018-12-31T02:10:42.460Z,15.53
2018-12-31T02:13:23.850Z,15.07
2018-12-31T02:16:05.379Z,11.67
2018-12-31T02:18:46.150Z,11.33
2018-12-31T02:21:27.011Z,9.13
2018-12-31T02:24:06.560Z,12.67
2018-12-31T02:26:55.791Z,11.60
2018-12-31T02:29:36.857Z,10.33
2018-12-31T02:32:17.545Z,11.70
2018-12-31T02:34:58.649Z,9.50
2018-12-31T02:37:39.924Z,11.43
2018-12-31T02:40:21.845Z,12.33
2018-12-31T02:43:03.200Z,11.87
2018-12-31T02:45:44.716Z,10.60
2018-12-31T02:48:25.730Z,10.40
2018-12-31T02:51:06.613Z,8.60
2018-12-31T02:53:48.191Z,9.80
2018-12-31T02:56:30.069Z,10.17
2018-12-31T02:59:11.148Z,7.50
2018-12-31T03:01:52.132Z,7.67
2018-12-31T03:04:33.023Z,11.50
2018-12-31T03:07:12.491Z,8.60
2018-12-31T03:09:54.091Z,7.83
2018-12-31T03:12:34.186Z,6.07
2018-12-31T03:15:23.035Z,8.20
2018-12-31T03:18:03.171Z,8.17
2018-12-31T03:20:51.443Z,7.37
2018-12-31T03:23:32.012Z,7.87
2018-12-31T03:26:11.795Z,6.97
2018-12-31T03:29:00.067Z,6.27
2018-12-31T03:31:41.515Z,7.70
2018-12-31T03:34:22.583Z,5.83
2018-12-31T03:37:03.692Z,8.17
2018-12-31T03:39:45.124Z,7.97
2018-12-31T03:42:26.540Z,6.40
2018-12-31T03:45:07.671Z,5.27
2018-12-31T03:47:48.867Z,6.57
2018-12-31T03:50:30.073Z,4.77
2018-12-31T03:53:11.172Z,7.07
2018-12-31T03:55:52.167Z,5.13
2018-12-31T03:58:33.003Z,5.23
2018-12-31T04:01:14.598Z,4.53
2018-12-31T04:03:55.900Z,6.50
2018-12-31T04:06:37.202Z,5.93
2018-12-31T04:09:18.187Z,7.33
2018-12-31T04:11:59.281Z,7.20
2018-12-31T04:14:40.808Z,5.73
2018-12-31T04:17:21.643Z,5.00
2018-12-31T04:20:02.970Z,7.83
2018-12-31T04:22:44.115Z,6.77
2018-12-31T04:25:25.375Z,6.33
2018-12-31T04:28:07.052Z,8.27
2018-12-31T04:30:47.752Z,6.03
2018-12-31T04:33:28.304Z,6.97
2018-12-31T04:36:09.161Z,8.77
2018-12-31T04:38:50.511Z,7.90
2018-12-31T04:41:32.052Z,7.27
2018-12-31T04:44:12.896Z,7.50
2018-12-31T04:46:54.475Z,9.80
2018-12-31T04:49:35.220Z,11.83
2018-12-31T04:52:17.212Z,9.47
2018-12-31T04:54:58.529Z,12.70
2018-12-31T04:57:39.836Z,11.00
2018-12-31T05:00:21.218Z,11.30
2018-12-31T05:03:02.707Z,11.80
2018-12-31T05:05:43.505Z,9.13
2018-12-31T05:08:23.363Z,10.60
2018-12-31T05:11:04.471Z,10.97
2018-12-31T05:13:45.505Z,12.23
2018-12-31T05:16:26.749Z,11.90
2018-12-31T05:19:08.450Z,10.57
2018-12-31T05:21:49.971Z,13.33
2018-12-31T05:24:30.957Z,13.13
2018-12-31T05:27:11.780Z,12.90
2018-12-31T05:29:53.419Z,10.47
2018-12-31T05:32:35.238Z,9.00
2018-12-31T05:35:16.102Z,9.37
2018-12-31T05:37:56.981Z,11.63
2018-12-31T05:40:36.252Z,11.00
2018-12-31T05:43:17.606Z,13.10
2018-12-31T05:45:58.720Z,9.60
2018-12-31T05:48:40.801Z,10.07
2018-12-31T05:51:22.379Z,10.67
2018-12-31T05:54:02.937Z,15.23
2018-12-31T05:56:44.233Z,13.43
2018-12-31T05:59:25.622Z,13.97
2018-12-31T06:02:06.478Z,14.43
2018-12-31T06:04:47.533Z,15.37
2018-12-31T06:07:29.289Z,16.63
2018-12-31T06:10:10.400Z,12.50
2018-12-31T06:12:49.743Z,11.13
2018-12-31T06:15:30.406Z,15.73
2018-12-31T06:18:12.614Z,13.00
2018-12-31T06:20:53.705Z,12.47
2018-12-31T06:23:34.696Z,11.23
2018-12-31T06:26:16.063Z,14.30
2018-12-31T06:28:57.430Z,12.40
2018-12-31T06:31:38.600Z,9.93
2018-12-31T06:34:20.079Z,11.40
2018-12-31T06:37:00.623Z,13.13
2018-12-31T06:39:42.135Z,9.80
2018-12-31T06:42:21.987Z,9.77
2018-12-31T06:45:02.799Z,9.73
2018-12-31T06:47:44.558Z,11.97
2018-12-31T06:50:25.596Z,13.73
2018-12-31T06:53:06.689Z,12.63
2018-12-31T06:55:48.067Z,11.80
2018-12-31T06:58:28.084Z,10.50
2018-12-31T07:01:07.632Z,9.40
2018-12-31T07:03:48.898Z,11.30
2018-12-31T07:06:30.448Z,10.63
2018-12-31T07:09:11.750Z,10.23
2018-12-31T07:11:52.902Z,11.67
2018-12-31T07:14:33.763Z,9.47
2018-12-31T07:17:14.712Z,11.33
2018-12-31T07:19:55.296Z,10.70
2018-12-31T07:22:35.769Z,12.13
2018-12-31T07:25:17.064Z,15.70
2018-12-31T07:27:58.408Z,12.57
2018-12-31T07:30:39.755Z,11.40
2018-12-31T07:33:21.078Z,11.03
2018-12-31T07:36:02.055Z,13.23
2018-12-31T07:38:43.715Z,15.13
2018-12-31T07:41:23.100Z,14.23
2018-12-31T07:44:03.686Z,16.43
2018-12-31T07:46:44.511Z,17.57
2018-12-31T07:49:25.404Z,19.47
2018-12-31T07:52:04.699Z,15.13
2018-12-31T07:54:45.878Z,17.67
2018-12-31T07:57:27.849Z,14.70
2018-12-31T08:00:08.932Z,17.93
2018-12-31T08:02:50.529Z,20.30
2018-12-31T08:05:31.749Z,23.17
2018-12-31T08:08:12.790Z,24.03
2018-12-31T08:10:54.592Z,21.90
2018-12-31T08:13:36.109Z,19.60
2018-12-31T08:16:16.712Z,21.83
2018-12-31T08:18:56.216Z,22.30
2018-12-31T08:21:37.452Z,20.27
2018-12-31T08:24:18.784Z,20.13
2018-12-31T08:27:00.711Z,29.17
2018-12-31T08:29:42.104Z,25.37
2018-12-31T08:32:22.924Z,20.37
2018-12-31T08:35:04.088Z,17.87
2018-12-31T08:37:45.766Z,38.53
2018-12-31T08:40:27.721Z,21.17
2018-12-31T08:43:08.824Z,23.23
2018-12-31T08:45:50.187Z,22.47
2018-12-31T08:48:31.171Z,17.00
2018-12-31T08:51:12.622Z,18.80
2018-12-31T08:53:53.978Z,19.17
2018-12-31T08:56:35.676Z,21.43
2018-12-31T08:59:15.145Z,21.47
2018-12-31T09:01:56.867Z,18.60
2018-12-31T09:04:38.650Z,23.90
2018-12-31T09:07:20.156Z,16.83
2018-12-31T09:10:01.263Z,43.80
2018-12-31T09:12:42.183Z,20.63
2018-12-31T09:15:22.473Z,29.13
2018-12-31T09:18:11.405Z,48.43
2018-12-31T09:20:53.232Z,36.73
2018-12-31T09:23:34.431Z,26.13
2018-12-31T09:26:15.964Z,14.27
2018-12-31T09:28:57.194Z,17.33
2018-12-31T09:31:38.114Z,14.23
2018-12-31T09:34:19.058Z,13.60
2018-12-31T09:37:00.596Z,14.10
2018-12-31T09:39:41.786Z,14.07
2018-12-31T09:42:23.167Z,13.43
2018-12-31T09:45:04.393Z,14.50
2018-12-31T09:47:45.801Z,16.07
2018-12-31T09:50:26.673Z,15.60
2018-12-31T09:53:08.373Z,14.60
2018-12-31T09:55:50.009Z,16.67
2018-12-31T09:58:31.464Z,16.73
2018-12-31T10:01:12.715Z,30.50
2018-12-31T10:03:53.532Z,34.13
2018-12-31T10:06:35.121Z,21.07
2018-12-31T10:09:16.463Z,18.80
2018-12-31T10:11:58.107Z,18.37
2018-12-31T10:14:39.428Z,11.33
2018-12-31T10:17:20.520Z,13.23
2018-12-31T10:20:01.777Z,11.90
2018-12-31T10:22:43.009Z,12.13
2018-12-31T10:25:24.437Z,12.80
2018-12-31T10:28:06.118Z,18.03
2018-12-31T10:30:46.449Z,16.17
2018-12-31T10:33:27.680Z,15.20
2018-12-31T10:36:09.139Z,17.57
2018-12-31T10:38:51.280Z,18.87
2018-12-31T10:41:33.174Z,16.30
2018-12-31T10:44:14.788Z,14.73
2018-12-31T10:46:56.398Z,14.87
2018-12-31T10:49:36.086Z,15.93
2018-12-31T10:52:16.057Z,14.23
2018-12-31T10:55:04.889Z,16.33
2018-12-31T10:57:46.312Z,16.23
2018-12-31T11:00:27.917Z,25.73
2018-12-31T11:03:09.114Z,16.53
2018-12-31T11:05:50.496Z,18.47
2018-12-31T11:08:31.684Z,15.93
2018-12-31T11:11:13.168Z,12.93
2018-12-31T11:13:54.462Z,11.70
2018-12-31T11:16:35.784Z,15.13
2018-12-31T11:19:17.027Z,17.63
2018-12-31T11:21:58.445Z,16.43
2018-12-31T11:24:39.762Z,18.17
2018-12-31T11:27:20.899Z,16.90
2018-12-31T11:30:01.814Z,17.30
2018-12-31T11:32:43.277Z,17.77
2018-12-31T11:35:24.642Z,29.37
2018-12-31T11:38:05.802Z,22.03
2018-12-31T11:40:46.489Z,19.57
2018-12-31T11:43:27.536Z,22.27
2018-12-31T11:46:08.318Z,21.77
2018-12-31T11:48:49.354Z,18.83
2018-12-31T11:51:30.608Z,21.33
2018-12-31T11:54:12.197Z,17.80
2018-12-31T11:56:54.225Z,21.00
2018-12-31T11:59:35.226Z,20.27
2018-12-31T12:02:23.332Z,22.20
2018-12-31T12:04:59.807Z,28.17
2018-12-31T12:07:41.635Z,34.03
2018-12-31T12:10:23.186Z,26.77
2018-12-31T12:13:04.504Z,22.97
2018-12-31T12:15:46.093Z,28.10
2018-12-31T12:18:27.361Z,22.30
2018-12-31T12:21:08.893Z,20.73
2018-12-31T12:23:51.205Z,19.13
2018-12-31T12:26:32.337Z,15.83
2018-12-31T12:29:11.835Z,16.53
2018-12-31T12:32:00.996Z,22.37
2018-12-31T12:34:42.217Z,19.47
2018-12-31T12:37:23.442Z,19.67
2018-12-31T12:40:04.767Z,21.07
2018-12-31T12:42:46.148Z,22.17
2018-12-31T12:45:27.653Z,21.10
2018-12-31T12:48:09.054Z,23.20
2018-12-31T12:50:50.801Z,20.80
2018-12-31T12:53:32.475Z,21.47
2018-12-31T12:56:13.872Z,23.33
2018-12-31T12:58:55.755Z,25.67
2018-12-31T13:01:37.301Z,23.03
2018-12-31T13:04:18.539Z,24.33
2018-12-31T13:07:00.187Z,22.73
2018-12-31T13:09:41.824Z,25.50
2018-12-31T13:12:23.546Z,21.17
2018-12-31T13:15:05.034Z,18.80
2018-12-31T13:17:44.726Z,18.53
2018-12-31T13:20:33.362Z,18.47
2018-12-31T13:23:14.619Z,17.67
2018-12-31T13:25:56.370Z,19.70
2018-12-31T13:28:38.024Z,19.40
2018-12-31T13:31:19.890Z,23.20
2018-12-31T13:34:01.188Z,25.57
2018-12-31T13:36:42.301Z,22.23
2018-12-31T13:39:25.153Z,24.17
2018-12-31T13:42:06.640Z,24.37
2018-12-31T13:44:48.366Z,31.37
2018-12-31T13:47:29.529Z,26.77
2018-12-31T13:50:11.132Z,26.53
2018-12-31T13:52:52.340Z,25.93
2018-12-31T13:55:34.018Z,28.13
2018-12-31T13:58:15.488Z,26.60
2018-12-31T14:00:56.781Z,29.00
2018-12-31T14:03:38.079Z,26.07
2018-12-31T14:06:19.385Z,25.03
2018-12-31T14:09:01.155Z,23.93
2018-12-31T14:11:42.593Z,23.53
2018-12-31T14:14:24.384Z,24.37
2018-12-31T14:17:05.767Z,23.50
2018-12-31T14:19:47.071Z,24.67
2018-12-31T14:22:30.126Z,27.53
2018-12-31T14:25:11.175Z,29.03
2018-12-31T14:27:53.217Z,22.27
2018-12-31T14:30:34.977Z,22.87
2018-12-31T14:33:16.582Z,26.93
2018-12-31T14:35:58.217Z,26.03
2018-12-31T14:38:40.025Z,29.63
2018-12-31T14:41:21.363Z,27.07
2018-12-31T14:44:02.566Z,34.07
2018-12-31T14:46:43.813Z,28.87
2018-12-31T14:49:25.062Z,28.23
2018-12-31T14:52:06.771Z,27.57
2018-12-31T14:54:47.963Z,29.90
2018-12-31T14:57:29.716Z,31.03
2018-12-31T15:00:11.277Z,32.57
2018-12-31T15:02:52.624Z,31.00
2018-12-31T15:05:32.379Z,29.97
2018-12-31T15:08:12.140Z,30.53
2018-12-31T15:10:53.591Z,36.67
2018-12-31T15:13:34.874Z,39.27
2018-12-31T15:16:16.285Z,30.80
2018-12-31T15:18:57.715Z,37.93
2018-12-31T15:21:39.285Z,40.17
2018-12-31T15:24:21.189Z,38.30
2018-12-31T15:27:02.405Z,33.63
2018-12-31T15:29:43.775Z,34.97
2018-12-31T15:32:26.142Z,35.20
2018-12-31T15:35:06.930Z,34.80
2018-12-31T15:37:47.769Z,34.23
2018-12-31T15:40:33.418Z,33.13
2018-12-31T15:43:14.455Z,32.80
2018-12-31T15:45:54.892Z,33.40
2018-12-31T15:48:35.723Z,32.33
2018-12-31T15:51:17.720Z,36.07
2018-12-31T15:53:59.395Z,33.40
2018-12-31T15:56:40.796Z,37.57
2018-12-31T15:59:22.216Z,39.80
2018-12-31T16:02:03.843Z,40.30
2018-12-31T16:04:45.437Z,37.53
2018-12-31T16:07:26.906Z,38.07
2018-12-31T16:10:08.120Z,38.13
2018-12-31T16:12:49.238Z,36.47
2018-12-31T16:15:29.984Z,38.73
2018-12-31T16:18:11.029Z,34.73
2018-12-31T16:20:52.243Z,32.73
2018-12-31T16:23:33.790Z,27.57
2018-12-31T16:26:15.305Z,34.87
2018-12-31T16:28:57.354Z,31.20
2018-12-31T16:31:37.400Z,30.90
2018-12-31T16:34:26.056Z,32.80
2018-12-31T16:37:07.590Z,32.17
2018-12-31T16:39:49.326Z,35.20
2018-12-31T16:42:30.572Z,43.30
2018-12-31T16:45:12.832Z,50.80
2018-12-31T16:47:54.056Z,50.87
2018-12-31T16:50:36.103Z,42.43
2018-12-31T16:53:17.492Z,34.73
2018-12-31T16:55:58.664Z,34.43
2018-12-31T16:58:39.428Z,38.60
2018-12-31T17:01:20.952Z,36.53
2018-12-31T17:04:02.902Z,32.87
2018-12-31T17:06:44.219Z,34.17
2018-12-31T17:09:25.860Z,35.33
2018-12-31T17:12:07.998Z,36.33
2018-12-31T17:14:50.103Z,40.53
2018-12-31T17:17:31.499Z,37.67
2018-12-31T17:20:13.512Z,39.17
2018-12-31T17:22:55.104Z,41.37
2018-12-31T17:25:36.285Z,36.43
2018-12-31T17:28:17.986Z,38.97
2018-12-31T17:30:59.981Z,37.33
2018-12-31T17:33:41.315Z,40.20
2018-12-31T17:36:22.300Z,42.43
2018-12-31T17:39:04.189Z,44.90
2018-12-31T17:41:45.703Z,45.03
2018-12-31T17:44:27.207Z,41.17
2018-12-31T17:47:08.605Z,44.43
2018-12-31T17:49:49.749Z,43.73
2018-12-31T17:52:30.538Z,51.23
2018-12-31T17:55:11.280Z,60.60
2018-12-31T17:57:53.228Z,58.90
2018-12-31T18:00:34.422Z,49.03
2018-12-31T18:03:15.766Z,48.37
2018-12-31T18:05:57.447Z,48.27
2018-12-31T18:08:39.317Z,52.53
2018-12-31T18:11:20.728Z,60.87
2018-12-31T18:14:01.904Z,57.80
2018-12-31T18:16:42.935Z,78.53
2018-12-31T18:19:24.605Z,72.87
2018-12-31T18:22:06.522Z,80.40
2018-12-31T18:24:48.066Z,54.53
2018-12-31T18:27:30.325Z,55.50
2018-12-31T18:30:11.963Z,61.63
2018-12-31T18:32:53.388Z,61.30
2018-12-31T18:35:34.764Z,67.17
2018-12-31T18:38:15.510Z,72.47
2018-12-31T18:40:56.449Z,85.17
2018-12-31T18:43:37.950Z,87.33
2018-12-31T18:46:19.710Z,93.57
2018-12-31T18:49:04.865Z,91.93
2018-12-31T18:51:45.926Z,101.07
2018-12-31T18:54:27.506Z,103.97
2018-12-31T18:57:08.500Z,109.97
2018-12-31T18:59:49.758Z,111.77
2018-12-31T19:02:32.539Z,87.33
2018-12-31T19:05:13.948Z,100.30
2018-12-31T19:07:55.164Z,98.50
2018-12-31T19:10:36.688Z,80.40
2018-12-31T19:13:18.076Z,89.13
2018-12-31T19:15:58.837Z,85.53
2018-12-31T19:18:40.335Z,71.63
2018-12-31T19:21:21.787Z,71.17
2018-12-31T19:24:03.174Z,64.50
2018-12-31T19:26:45.912Z,61.83
2018-12-31T19:29:27.994Z,66.63
2018-12-31T19:32:08.703Z,69.40
2018-12-31T19:34:50.238Z,64.47
2018-12-31T19:37:31.177Z,57.50
2018-12-31T19:40:13.926Z,64.77
2018-12-31T19:42:55.541Z,67.70
2018-12-31T19:45:37.253Z,67.63
2018-12-31T19:48:18.419Z,67.60
2018-12-31T19:50:59.564Z,68.10
2018-12-31T19:53:40.564Z,60.13
2018-12-31T19:56:22.654Z,51.50
2018-12-31T19:59:03.729Z,46.87
2018-12-31T20:01:44.986Z,48.67
2018-12-31T20:04:26.713Z,47.37
2018-12-31T20:07:08.505Z,53.23
2018-12-31T20:09:49.485Z,55.30
2018-12-31T20:12:29.113Z,52.17
2018-12-31T20:15:17.535Z,51.37
2018-12-31T20:17:58.631Z,59.13
2018-12-31T20:20:38.948Z,59.27
2018-12-31T20:23:27.582Z,61.53
2018-12-31T20:26:08.277Z,59.80
2018-12-31T20:28:50.026Z,66.87
2018-12-31T20:31:31.395Z,58.00
2018-12-31T20:34:12.955Z,47.77
2018-12-31T20:36:54.531Z,46.63
2018-12-31T20:39:35.608Z,52.90
2018-12-31T20:42:17.035Z,53.20
2018-12-31T20:44:57.672Z,50.37
2018-12-31T20:47:39.311Z,50.17
2018-12-31T20:50:20.763Z,50.47
2018-12-31T20:53:00.169Z,53.63
2018-12-31T20:55:48.591Z,65.10
2018-12-31T20:58:29.820Z,67.77
2018-12-31T21:01:11.391Z,63.67
2018-12-31T21:03:52.946Z,67.90
2018-12-31T21:06:33.763Z,62.70
2018-12-31T21:09:15.172Z,66.70
2018-12-31T21:11:56.857Z,70.40
2018-12-31T21:14:38.683Z,65.03
2018-12-31T21:17:19.599Z,68.73
2018-12-31T21:20:01.585Z,77.57
2018-12-31T21:22:42.736Z,72.37
2018-12-31T21:25:24.167Z,68.67
2018-12-31T21:28:05.790Z,78.67
2018-12-31T21:30:46.454Z,89.27
2018-12-31T21:33:28.483Z,105.33
2018-12-31T21:36:09.455Z,105.83
2018-12-31T21:38:50.110Z,93.47
2018-12-31T21:41:31.164Z,87.40
2018-12-31T21:44:12.518Z,76.90
2018-12-31T21:46:53.601Z,77.70
2018-12-31T21:49:35.010Z,79.80
2018-12-31T21:52:17.399Z,91.97
2018-12-31T21:54:58.847Z,91.93
2018-12-31T21:57:41.127Z,92.03
2018-12-31T22:00:22.932Z,91.43
2018-12-31T22:03:04.237Z,83.27
2018-12-31T22:05:46.561Z,75.80
2018-12-31T22:08:27.904Z,81.63
2018-12-31T22:11:09.523Z,75.73
2018-12-31T22:13:50.955Z,74.17
2018-12-31T22:16:32.701Z,76.43
2018-12-31T22:19:14.029Z,66.53
2018-12-31T22:21:55.066Z,62.10
2018-12-31T22:24:37.083Z,48.03
2018-12-31T22:27:19.023Z,52.50
2018-12-31T22:30:00.452Z,55.20
2018-12-31T22:32:41.596Z,48.57
2018-12-31T22:35:23.287Z,54.77
2018-12-31T22:38:03.125Z,64.33
2018-12-31T22:43:50.358Z,80.00
2018-12-31T22:46:31.422Z,78.80
2018-12-31T22:49:12.372Z,74.30
2018-12-31T22:51:53.859Z,86.40
2018-12-31T22:54:36.693Z,79.37
2018-12-31T22:57:17.823Z,81.07
2018-12-31T22:59:58.795Z,75.47
2018-12-31T23:02:43.748Z,85.93
2018-12-31T23:05:24.931Z,99.67
2018-12-31T23:08:06.286Z,134.53
2018-12-31T23:10:47.831Z,142.23
2018-12-31T23:13:29.524Z,130.20
2018-12-31T23:16:10.803Z,124.63
2018-12-31T23:18:52.780Z,145.97
2018-12-31T23:21:33.510Z,132.73
2018-12-31T23:24:14.247Z,148.67
2018-12-31T23:26:55.419Z,139.17
2018-12-31T23:29:37.487Z,138.27
2018-12-31T23:32:19.002Z,142.03
2018-12-31T23:35:00.456Z,132.30
2018-12-31T23:37:41.761Z,134.17
2018-12-31T23:40:23.166Z,130.93
2018-12-31T23:43:06.542Z,131.37
2018-12-31T23:45:48.367Z,126.83
2018-12-31T23:48:29.971Z,126.20
2018-12-31T23:51:11.260Z,125.90
2018-12-31T23:53:52.313Z,132.37
2018-12-31T23:56:33.142Z,134.13
2018-12-31T23:59:14.612Z,133.87
